sensor_id;sensor_type;location;lat;lon;timestamp;pressure;altitude;pressure_sealevel;temperature;humidity
54042;BME280;41156;51.508;5.406;2023-02-15T00:02:49;102790.22;;;1.62;100.00
54042;BME280;41156;51.508;5.406;2023-02-15T00:05:49;102788.50;;;1.61;100.00
54042;BME280;41156;51.508;5.406;2023-02-15T00:08:50;102782.53;;;1.58;100.00
54042;BME280;41156;51.508;5.406;2023-02-15T00:11:50;102788.19;;;1.53;100.00
54042;BME280;41156;51.508;5.406;2023-02-15T00:14:50;102786.59;;;1.51;100.00
54042;BME280;41156;51.508;5.406;2023-02-15T00:17:50;102774.31;;;1.48;100.00
54042;BME280;41156;51.508;5.406;2023-02-15T00:20:51;102777.22;;;1.45;100.00
54042;BME280;41156;51.508;5.406;2023-02-15T00:23:51;102768.69;;;1.40;100.00
54042;BME280;41156;51.508;5.406;2023-02-15T00:26:51;102770.50;;;1.39;100.00
54042;BME280;41156;51.508;5.406;2023-02-15T00:29:51;102769.75;;;1.37;100.00
54042;BME280;41156;51.508;5.406;2023-02-15T00:32:52;102778.06;;;1.33;100.00
54042;BME280;41156;51.508;5.406;2023-02-15T00:35:56;102763.28;;;1.28;100.00
54042;BME280;41156;51.508;5.406;2023-02-15T00:38:57;102773.16;;;1.26;100.00
54042;BME280;41156;51.508;5.406;2023-02-15T00:41:57;102755.59;;;1.24;100.00
54042;BME280;41156;51.508;5.406;2023-02-15T00:44:57;102757.63;;;1.20;100.00
54042;BME280;41156;51.508;5.406;2023-02-15T00:47:57;102751.66;;;1.17;100.00
54042;BME280;41156;51.508;5.406;2023-02-15T00:50:59;102750.16;;;1.13;100.00
54042;BME280;41156;51.508;5.406;2023-02-15T00:54:00;102750.25;;;1.11;100.00
54042;BME280;41156;51.508;5.406;2023-02-15T00:57:00;102746.00;;;1.08;100.00
54042;BME280;41156;51.508;5.406;2023-02-15T01:00:01;102744.50;;;1.04;100.00
54042;BME280;41156;51.508;5.406;2023-02-15T01:03:02;102740.38;;;1.00;100.00
54042;BME280;41156;51.508;5.406;2023-02-15T01:06:03;102734.25;;;0.98;100.00
54042;BME280;41156;51.508;5.406;2023-02-15T01:09:04;102727.34;;;0.96;100.00
54042;BME280;41156;51.508;5.406;2023-02-15T01:12:04;102728.41;;;0.93;100.00
54042;BME280;41156;51.508;5.406;2023-02-15T01:15:05;102745.34;;;0.92;100.00
54042;BME280;41156;51.508;5.406;2023-02-15T01:18:05;102735.75;;;0.89;100.00
54042;BME280;41156;51.508;5.406;2023-02-15T01:21:17;102731.50;;;0.87;100.00
54042;BME280;41156;51.508;5.406;2023-02-15T01:24:17;102729.06;;;0.84;100.00
54042;BME280;41156;51.508;5.406;2023-02-15T01:27:18;102725.66;;;0.82;100.00
54042;BME280;41156;51.508;5.406;2023-02-15T01:30:18;102724.16;;;0.78;100.00
54042;BME280;41156;51.508;5.406;2023-02-15T01:33:19;102717.25;;;0.75;100.00
54042;BME280;41156;51.508;5.406;2023-02-15T01:36:19;102716.47;;;0.73;100.00
54042;BME280;41156;51.508;5.406;2023-02-15T01:39:19;102713.16;;;0.69;100.00
54042;BME280;41156;51.508;5.406;2023-02-15T01:42:23;102704.44;;;0.67;100.00
54042;BME280;41156;51.508;5.406;2023-02-15T01:45:30;102709.13;;;0.64;100.00
54042;BME280;41156;51.508;5.406;2023-02-15T01:48:31;102711.03;;;0.62;100.00
54042;BME280;41156;51.508;5.406;2023-02-15T01:51:34;102716.66;;;0.57;100.00
54042;BME280;41156;51.508;5.406;2023-02-15T01:54:38;102700.06;;;0.53;100.00
54042;BME280;41156;51.508;5.406;2023-02-15T01:57:41;102701.94;;;0.51;100.00
54042;BME280;41156;51.508;5.406;2023-02-15T02:00:43;102707.28;;;0.51;100.00
54042;BME280;41156;51.508;5.406;2023-02-15T02:04:17;102703.03;;;0.49;100.00
54042;BME280;41156;51.508;5.406;2023-02-15T02:07:23;102701.31;;;0.48;100.00
54042;BME280;41156;51.508;5.406;2023-02-15T02:10:24;102701.50;;;0.45;100.00
54042;BME280;41156;51.508;5.406;2023-02-15T02:13:25;102692.78;;;0.43;100.00
54042;BME280;41156;51.508;5.406;2023-02-15T02:26:20;102682.78;;;0.33;100.00
54042;BME280;41156;51.508;5.406;2023-02-15T02:33:41;102672.66;;;0.26;100.00
54042;BME280;41156;51.508;5.406;2023-02-15T02:36:55;102671.03;;;0.23;100.00
54042;BME280;41156;51.508;5.406;2023-02-15T02:40:32;102670.19;;;0.23;100.00
54042;BME280;41156;51.508;5.406;2023-02-15T02:47:24;102663.38;;;0.18;100.00
54042;BME280;41156;51.508;5.406;2023-02-15T02:50:29;102657.38;;;0.15;100.00
54042;BME280;41156;51.508;5.406;2023-02-15T02:53:30;102661.13;;;0.12;100.00
54042;BME280;41156;51.508;5.406;2023-02-15T02:56:36;102654.19;;;0.10;100.00
54042;BME280;41156;51.508;5.406;2023-02-15T02:59:42;102654.28;;;0.08;100.00
54042;BME280;41156;51.508;5.406;2023-02-15T03:02:47;102654.41;;;0.07;100.00
54042;BME280;41156;51.508;5.406;2023-02-15T03:05:50;102650.97;;;0.05;100.00
54042;BME280;41156;51.508;5.406;2023-02-15T03:09:35;102643.97;;;0.04;100.00
54042;BME280;41156;51.508;5.406;2023-02-15T03:12:42;102637.16;;;-0.01;100.00
54042;BME280;41156;51.508;5.406;2023-02-15T03:15:44;102637.25;;;-0.02;100.00
54042;BME280;41156;51.508;5.406;2023-02-15T03:19:15;102632.91;;;-0.03;100.00
54042;BME280;41156;51.508;5.406;2023-02-15T03:22:25;102638.31;;;-0.05;100.00
54042;BME280;41156;51.508;5.406;2023-02-15T03:25:32;102632.22;;;-0.07;100.00
54042;BME280;41156;51.508;5.406;2023-02-15T03:28:38;102620.00;;;-0.09;100.00
54042;BME280;41156;51.508;5.406;2023-02-15T03:31:43;102621.94;;;-0.11;100.00
54042;BME280;41156;51.508;5.406;2023-02-15T03:34:46;102618.50;;;-0.13;100.00
54042;BME280;41156;51.508;5.406;2023-02-15T03:37:47;102617.75;;;-0.15;100.00
54042;BME280;41156;51.508;5.406;2023-02-15T03:40:48;102616.06;;;-0.16;100.00
54042;BME280;41156;51.508;5.406;2023-02-15T03:44:28;102622.22;;;-0.16;100.00
54042;BME280;41156;51.508;5.406;2023-02-15T03:47:31;102616.81;;;-0.14;100.00
54042;BME280;41156;51.508;5.406;2023-02-15T03:50:36;102609.69;;;-0.14;100.00
54042;BME280;41156;51.508;5.406;2023-02-15T03:53:57;102619.28;;;-0.11;100.00
54042;BME280;41156;51.508;5.406;2023-02-15T03:56:58;102619.28;;;-0.11;100.00
54042;BME280;41156;51.508;5.406;2023-02-15T04:00:19;102626.38;;;-0.12;100.00
54042;BME280;41156;51.508;5.406;2023-02-15T04:03:43;102609.69;;;-0.14;100.00
54042;BME280;41156;51.508;5.406;2023-02-15T04:06:45;102615.00;;;-0.14;100.00
54042;BME280;41156;51.508;5.406;2023-02-15T04:17:39;102612.88;;;-0.22;100.00
54042;BME280;41156;51.508;5.406;2023-02-15T04:20:43;102619.31;;;-0.26;100.00
54042;BME280;41156;51.508;5.406;2023-02-15T04:24:02;102606.13;;;-0.27;100.00
54042;BME280;41156;51.508;5.406;2023-02-15T04:27:21;102610.78;;;-0.31;100.00
54042;BME280;41156;51.508;5.406;2023-02-15T04:30:24;102608.22;;;-0.32;100.00
54042;BME280;41156;51.508;5.406;2023-02-15T04:33:24;102613.66;;;-0.34;100.00
54042;BME280;41156;51.508;5.406;2023-02-15T04:36:25;102609.41;;;-0.36;100.00
54042;BME280;41156;51.508;5.406;2023-02-15T04:39:25;102612.91;;;-0.36;100.00
54042;BME280;41156;51.508;5.406;2023-02-15T04:42:25;102606.75;;;-0.36;100.00
54042;BME280;41156;51.508;5.406;2023-02-15T04:45:26;102601.63;;;-0.40;100.00
54042;BME280;41156;51.508;5.406;2023-02-15T04:48:27;102595.44;;;-0.40;100.00
54042;BME280;41156;51.508;5.406;2023-02-15T04:51:27;102596.31;;;-0.40;100.00
54042;BME280;41156;51.508;5.406;2023-02-15T04:54:28;102590.25;;;-0.42;100.00
54042;BME280;41156;51.508;5.406;2023-02-15T04:57:28;102586.72;;;-0.42;100.00
54042;BME280;41156;51.508;5.406;2023-02-15T05:00:28;102576.19;;;-0.44;100.00
54042;BME280;41156;51.508;5.406;2023-02-15T05:03:29;102584.25;;;-0.45;100.00
54042;BME280;41156;51.508;5.406;2023-02-15T05:06:29;102578.94;;;-0.45;100.00
54042;BME280;41156;51.508;5.406;2023-02-15T05:09:30;102574.31;;;-0.42;100.00
54042;BME280;41156;51.508;5.406;2023-02-15T05:12:30;102574.78;;;-0.35;100.00
54042;BME280;41156;51.508;5.406;2023-02-15T05:15:30;102575.22;;;-0.28;100.00
54042;BME280;41156;51.508;5.406;2023-02-15T05:18:31;102565.13;;;-0.23;100.00
54042;BME280;41156;51.508;5.406;2023-02-15T05:21:32;102569.28;;;-0.19;100.00
54042;BME280;41156;51.508;5.406;2023-02-15T05:24:33;102572.47;;;-0.14;100.00
54042;BME280;41156;51.508;5.406;2023-02-15T05:27:51;102576.75;;;-0.11;100.00
54042;BME280;41156;51.508;5.406;2023-02-15T05:31:18;102576.56;;;-0.08;100.00
54042;BME280;41156;51.508;5.406;2023-02-15T05:34:18;102580.91;;;-0.07;100.00
54042;BME280;41156;51.508;5.406;2023-02-15T05:37:19;102572.06;;;-0.08;100.00
54042;BME280;41156;51.508;5.406;2023-02-15T05:40:19;102560.81;;;-0.11;100.00
54042;BME280;41156;51.508;5.406;2023-02-15T05:43:20;102563.56;;;-0.13;100.00
54042;BME280;41156;51.508;5.406;2023-02-15T05:46:20;102565.47;;;-0.15;100.00
54042;BME280;41156;51.508;5.406;2023-02-15T05:49:20;102568.25;;;-0.16;100.00
54042;BME280;41156;51.508;5.406;2023-02-15T05:52:21;102568.34;;;-0.18;100.00
54042;BME280;41156;51.508;5.406;2023-02-15T05:55:21;102567.56;;;-0.20;100.00
54042;BME280;41156;51.508;5.406;2023-02-15T05:58:21;102558.94;;;-0.24;100.00
54042;BME280;41156;51.508;5.406;2023-02-15T06:01:22;102562.56;;;-0.25;100.00
54042;BME280;41156;51.508;5.406;2023-02-15T06:04:22;102569.91;;;-0.28;100.00
54042;BME280;41156;51.508;5.406;2023-02-15T06:07:23;102571.03;;;-0.32;100.00
54042;BME280;41156;51.508;5.406;2023-02-15T06:10:23;102570.50;;;-0.38;100.00
54042;BME280;41156;51.508;5.406;2023-02-15T06:13:24;102574.31;;;-0.42;100.00
54042;BME280;41156;51.508;5.406;2023-02-15T06:16:24;102581.50;;;-0.44;100.00
54042;BME280;41156;51.508;5.406;2023-02-15T06:19:24;102578.13;;;-0.46;100.00
54042;BME280;41156;51.508;5.406;2023-02-15T06:22:24;102585.13;;;-0.45;100.00
54042;BME280;41156;51.508;5.406;2023-02-15T06:25:25;102585.13;;;-0.45;100.00
54042;BME280;41156;51.508;5.406;2023-02-15T06:28:25;102579.63;;;-0.42;100.00
54042;BME280;41156;51.508;5.406;2023-02-15T06:31:26;102580.28;;;-0.38;100.00
54042;BME280;41156;51.508;5.406;2023-02-15T06:34:26;102567.09;;;-0.40;100.00
54042;BME280;41156;51.508;5.406;2023-02-15T06:37:26;102571.53;;;-0.40;100.00
54042;BME280;41156;51.508;5.406;2023-02-15T06:40:27;102574.19;;;-0.40;100.00
54042;BME280;41156;51.508;5.406;2023-02-15T06:43:27;102571.66;;;-0.42;100.00
54042;BME280;41156;51.508;5.406;2023-02-15T06:46:28;102570.69;;;-0.41;100.00
54042;BME280;41156;51.508;5.406;2023-02-15T06:49:28;102569.84;;;-0.41;100.00
54042;BME280;41156;51.508;5.406;2023-02-15T06:52:28;102571.66;;;-0.42;100.00
54042;BME280;41156;51.508;5.406;2023-02-15T06:55:29;102553.06;;;-0.42;100.00
54042;BME280;41156;51.508;5.406;2023-02-15T06:58:29;102555.59;;;-0.40;100.00
54042;BME280;41156;51.508;5.406;2023-02-15T07:01:30;102556.28;;;-0.36;100.00
54042;BME280;41156;51.508;5.406;2023-02-15T07:04:30;102548.22;;;-0.35;100.00
54042;BME280;41156;51.508;5.406;2023-02-15T07:07:31;102547.97;;;-0.32;100.00
54042;BME280;41156;51.508;5.406;2023-02-15T07:10:31;102540.69;;;-0.28;100.00
54042;BME280;41156;51.508;5.406;2023-02-15T07:13:31;102533.16;;;-0.22;100.00
54042;BME280;41156;51.508;5.406;2023-02-15T07:16:31;102534.63;;;-0.17;100.00
54042;BME280;41156;51.508;5.406;2023-02-15T07:19:32;102530.59;;;-0.10;100.00
54042;BME280;41156;51.508;5.406;2023-02-15T07:22:32;102543.47;;;-0.04;100.00
54042;BME280;41156;51.508;5.406;2023-02-15T07:25:34;102541.25;;;0.03;100.00
54042;BME280;41156;51.508;5.406;2023-02-15T07:28:35;102539.97;;;0.08;100.00
54042;BME280;41156;51.508;5.406;2023-02-15T07:31:35;102527.34;;;0.12;100.00
54042;BME280;41156;51.508;5.406;2023-02-15T07:34:35;102526.91;;;0.18;100.00
54042;BME280;41156;51.508;5.406;2023-02-15T07:37:36;102529.16;;;0.24;100.00
54042;BME280;41156;51.508;5.406;2023-02-15T07:40:36;102528.53;;;0.33;100.00
54042;BME280;41156;51.508;5.406;2023-02-15T07:43:39;102528.84;;;0.42;100.00
54042;BME280;41156;51.508;5.406;2023-02-15T07:46:40;102528.19;;;0.51;100.00
54042;BME280;41156;51.508;5.406;2023-02-15T07:49:41;102531.19;;;0.59;100.00
54042;BME280;41156;51.508;5.406;2023-02-15T07:52:41;102529.78;;;0.66;100.00
54042;BME280;41156;51.508;5.406;2023-02-15T07:55:41;102531.78;;;0.76;100.00
54042;BME280;41156;51.508;5.406;2023-02-15T07:58:41;102522.41;;;0.83;100.00
54042;BME280;41156;51.508;5.406;2023-02-15T08:01:50;102525.16;;;0.94;100.00
54042;BME280;41156;51.508;5.406;2023-02-15T08:04:52;102528.84;;;1.04;100.00
54042;BME280;41156;51.508;5.406;2023-02-15T08:07:53;102524.66;;;1.13;100.00
54042;BME280;41156;51.508;5.406;2023-02-15T08:10:53;102523.16;;;1.22;100.00
54042;BME280;41156;51.508;5.406;2023-02-15T08:14:17;102520.53;;;1.33;100.00
54042;BME280;41156;51.508;5.406;2023-02-15T08:17:18;102522.53;;;1.42;100.00
54042;BME280;41156;51.508;5.406;2023-02-15T08:20:18;102518.22;;;1.53;100.00
54042;BME280;41156;51.508;5.406;2023-02-15T08:23:19;102522.00;;;1.61;100.00
54042;BME280;41156;51.508;5.406;2023-02-15T08:26:20;102526.53;;;1.72;100.00
54042;BME280;41156;51.508;5.406;2023-02-15T08:29:23;102522.94;;;1.84;100.00
54042;BME280;41156;51.508;5.406;2023-02-15T08:32:23;102521.91;;;1.98;100.00
54042;BME280;41156;51.508;5.406;2023-02-15T08:35:23;102518.19;;;2.12;100.00
54042;BME280;41156;51.508;5.406;2023-02-15T08:38:24;102517.97;;;2.27;100.00
54042;BME280;41156;51.508;5.406;2023-02-15T08:41:26;102512.28;;;2.43;100.00
54042;BME280;41156;51.508;5.406;2023-02-15T08:44:27;102513.59;;;2.59;100.00
54042;BME280;41156;51.508;5.406;2023-02-15T08:47:27;102517.47;;;2.78;100.00
54042;BME280;41156;51.508;5.406;2023-02-15T08:50:27;102513.19;;;2.98;100.00
54042;BME280;41156;51.508;5.406;2023-02-15T08:53:28;102512.94;;;3.12;100.00
54042;BME280;41156;51.508;5.406;2023-02-15T08:56:32;102507.09;;;3.30;100.00
54042;BME280;41156;51.508;5.406;2023-02-15T08:59:33;102507.78;;;3.43;100.00
54042;BME280;41156;51.508;5.406;2023-02-15T09:02:33;102510.25;;;3.56;100.00
54042;BME280;41156;51.508;5.406;2023-02-15T09:05:33;102498.56;;;3.68;100.00
54042;BME280;41156;51.508;5.406;2023-02-15T09:08:34;102500.19;;;3.81;100.00
54042;BME280;41156;51.508;5.406;2023-02-15T09:11:37;102498.88;;;3.96;100.00
54042;BME280;41156;51.508;5.406;2023-02-15T09:14:38;102490.53;;;4.11;100.00
54042;BME280;41156;51.508;5.406;2023-02-15T09:17:38;102487.38;;;4.26;100.00
54042;BME280;41156;51.508;5.406;2023-02-15T09:20:39;102485.91;;;4.43;100.00
54042;BME280;41156;51.508;5.406;2023-02-15T09:23:43;102477.97;;;4.63;100.00
54042;BME280;41156;51.508;5.406;2023-02-15T09:26:46;102481.56;;;4.83;100.00
54042;BME280;41156;51.508;5.406;2023-02-15T09:29:47;102476.22;;;5.03;100.00
54042;BME280;41156;51.508;5.406;2023-02-15T09:32:47;102481.06;;;5.18;100.00
54042;BME280;41156;51.508;5.406;2023-02-15T09:35:48;102471.31;;;5.37;100.00
54042;BME280;41156;51.508;5.406;2023-02-15T09:38:54;102457.38;;;5.53;100.00
54042;BME280;41156;51.508;5.406;2023-02-15T09:46:05;102468.31;;;5.89;100.00
54042;BME280;41156;51.508;5.406;2023-02-15T09:49:27;102470.00;;;6.09;100.00
54042;BME280;41156;51.508;5.406;2023-02-15T09:52:56;102477.72;;;6.32;100.00
54042;BME280;41156;51.508;5.406;2023-02-15T09:56:31;102478.09;;;6.47;100.00
54042;BME280;41156;51.508;5.406;2023-02-15T10:00:24;102490.41;;;6.67;100.00
54042;BME280;41156;51.508;5.406;2023-02-15T10:09:49;102486.94;;;7.13;100.00
54042;BME280;41156;51.508;5.406;2023-02-15T10:13:18;102495.63;;;7.25;100.00
54042;BME280;41156;51.508;5.406;2023-02-15T10:23:35;102500.09;;;7.52;100.00
54042;BME280;41156;51.508;5.406;2023-02-15T10:26:46;102492.78;;;7.62;100.00
54042;BME280;41156;51.508;5.406;2023-02-15T10:30:02;102495.91;;;7.75;100.00
54042;BME280;41156;51.508;5.406;2023-02-15T10:33:18;102489.34;;;7.96;100.00
54042;BME280;41156;51.508;5.406;2023-02-15T10:36:37;102492.84;;;8.14;100.00
54042;BME280;41156;51.508;5.406;2023-02-15T10:39:49;102485.88;;;8.30;100.00
54042;BME280;41156;51.508;5.406;2023-02-15T10:49:23;102465.41;;;8.80;97.33
54042;BME280;41156;51.508;5.406;2023-02-15T10:52:57;102471.53;;;8.98;92.20
54042;BME280;41156;51.508;5.406;2023-02-15T10:59:48;102466.72;;;9.35;88.25
54042;BME280;41156;51.508;5.406;2023-02-15T11:06:15;102459.31;;;9.70;93.16
54042;BME280;41156;51.508;5.406;2023-02-15T11:09:19;102457.25;;;9.88;94.58
54042;BME280;41156;51.508;5.406;2023-02-15T11:12:24;102458.91;;;10.06;92.57
54042;BME280;41156;51.508;5.406;2023-02-15T11:15:34;102456.16;;;10.22;90.73
54042;BME280;41156;51.508;5.406;2023-02-15T11:18:43;102457.84;;;10.31;87.53
54042;BME280;41156;51.508;5.406;2023-02-15T11:21:49;102460.53;;;10.48;91.75
54042;BME280;41156;51.508;5.406;2023-02-15T11:24:51;102447.28;;;10.61;90.57
54042;BME280;41156;51.508;5.406;2023-02-15T11:27:52;102446.22;;;10.70;90.90
54042;BME280;41156;51.508;5.406;2023-02-15T11:30:56;102446.53;;;10.76;85.69
54042;BME280;41156;51.508;5.406;2023-02-15T11:34:00;102442.66;;;10.78;88.29
54042;BME280;41156;51.508;5.406;2023-02-15T11:37:11;102431.25;;;10.91;86.36
54042;BME280;41156;51.508;5.406;2023-02-15T11:40:31;102427.59;;;11.07;79.97
54042;BME280;41156;51.508;5.406;2023-02-15T11:46:56;102416.00;;;11.44;89.09
54042;BME280;41156;51.508;5.406;2023-02-15T11:49:57;102412.47;;;11.59;88.93
54042;BME280;41156;51.508;5.406;2023-02-15T11:53:18;102412.69;;;11.72;77.59
54042;BME280;41156;51.508;5.406;2023-02-15T11:56:23;102406.34;;;11.80;83.87
54042;BME280;41156;51.508;5.406;2023-02-15T11:59:31;102396.09;;;11.90;84.08
54042;BME280;41156;51.508;5.406;2023-02-15T12:02:35;102396.84;;;11.99;83.51
54042;BME280;41156;51.508;5.406;2023-02-15T12:05:40;102395.38;;;12.11;82.26
54042;BME280;41156;51.508;5.406;2023-02-15T12:08:45;102393.69;;;12.25;85.41
54042;BME280;41156;51.508;5.406;2023-02-15T12:11:49;102385.91;;;12.37;86.85
54042;BME280;41156;51.508;5.406;2023-02-15T12:14:51;102379.19;;;12.48;79.76
54042;BME280;41156;51.508;5.406;2023-02-15T12:17:52;102375.31;;;12.57;83.38
54042;BME280;41156;51.508;5.406;2023-02-15T12:20:58;102376.81;;;12.59;77.93
54042;BME280;41156;51.508;5.406;2023-02-15T12:24:03;102367.63;;;12.61;80.15
54042;BME280;41156;51.508;5.406;2023-02-15T12:27:18;102369.31;;;12.62;74.02
54042;BME280;41156;51.508;5.406;2023-02-15T12:30:36;102366.41;;;12.63;76.84
54042;BME280;41156;51.508;5.406;2023-02-15T12:33:43;102360.16;;;12.63;76.07
54042;BME280;41156;51.508;5.406;2023-02-15T12:36:48;102355.25;;;12.73;80.42
54042;BME280;41156;51.508;5.406;2023-02-15T12:39:58;102365.81;;;12.83;77.40
54042;BME280;41156;51.508;5.406;2023-02-15T12:42:59;102364.44;;;12.93;81.53
54042;BME280;41156;51.508;5.406;2023-02-15T12:46:24;102367.41;;;12.99;70.93
54042;BME280;41156;51.508;5.406;2023-02-15T12:49:26;102359.53;;;13.04;79.37
54042;BME280;41156;51.508;5.406;2023-02-15T12:52:26;102353.53;;;13.08;71.01
54042;BME280;41156;51.508;5.406;2023-02-15T12:55:27;102342.72;;;13.15;79.73
54042;BME280;41156;51.508;5.406;2023-02-15T12:58:35;102344.03;;;13.19;74.84
54042;BME280;41156;51.508;5.406;2023-02-15T13:01:35;102339.44;;;13.20;79.18
54042;BME280;41156;51.508;5.406;2023-02-15T13:04:36;102334.19;;;13.18;78.77
54042;BME280;41156;51.508;5.406;2023-02-15T13:07:36;102330.69;;;13.24;78.77
54042;BME280;41156;51.508;5.406;2023-02-15T13:10:41;102330.84;;;13.38;71.86
54042;BME280;41156;51.508;5.406;2023-02-15T13:13:57;102327.13;;;13.45;69.77
54042;BME280;41156;51.508;5.406;2023-02-15T13:17:01;102322.41;;;13.54;75.41
54042;BME280;41156;51.508;5.406;2023-02-15T13:20:05;102323.03;;;13.56;74.65
54042;BME280;41156;51.508;5.406;2023-02-15T13:23:23;102312.16;;;13.56;68.06
54042;BME280;41156;51.508;5.406;2023-02-15T13:26:26;102310.88;;;13.52;74.67
54042;BME280;41156;51.508;5.406;2023-02-15T13:29:32;102302.88;;;13.44;77.28
54042;BME280;41156;51.508;5.406;2023-02-15T13:32:36;102302.00;;;13.37;73.97
54042;BME280;41156;51.508;5.406;2023-02-15T13:36:12;102310.06;;;13.30;72.34
54042;BME280;41156;51.508;5.406;2023-02-15T13:39:36;102315.44;;;13.23;74.86
54042;BME280;41156;51.508;5.406;2023-02-15T13:42:43;102306.66;;;13.21;75.86
54042;BME280;41156;51.508;5.406;2023-02-15T13:49:14;102294.25;;;13.12;75.04
54042;BME280;41156;51.508;5.406;2023-02-15T13:52:21;102295.69;;;13.08;74.58
54042;BME280;41156;51.508;5.406;2023-02-15T13:55:34;102291.53;;;13.12;71.41
54042;BME280;41156;51.508;5.406;2023-02-15T14:01:49;102292.31;;;13.27;72.91
54042;BME280;41156;51.508;5.406;2023-02-15T14:05:18;102298.00;;;13.32;70.94
54042;BME280;41156;51.508;5.406;2023-02-15T14:08:28;102309.50;;;13.35;76.12
54042;BME280;41156;51.508;5.406;2023-02-15T14:22:31;102313.00;;;13.07;70.70
54042;BME280;41156;51.508;5.406;2023-02-15T14:25:40;102308.56;;;12.99;74.15
54042;BME280;41156;51.508;5.406;2023-02-15T14:31:58;102320.25;;;12.78;72.66
54042;BME280;41156;51.508;5.406;2023-02-15T14:35:02;102322.53;;;12.74;76.24
54042;BME280;41156;51.508;5.406;2023-02-15T14:38:27;102316.84;;;12.69;73.38
54042;BME280;41156;51.508;5.406;2023-02-15T14:41:42;102307.41;;;12.65;74.36
54042;BME280;41156;51.508;5.406;2023-02-15T14:45:18;102307.59;;;12.64;72.87
54042;BME280;41156;51.508;5.406;2023-02-15T14:48:31;102299.25;;;12.65;74.55
54042;BME280;41156;51.508;5.406;2023-02-15T14:57:55;102307.72;;;12.55;74.71
54042;BME280;41156;51.508;5.406;2023-02-15T15:01:04;102305.13;;;12.47;73.20
54042;BME280;41156;51.508;5.406;2023-02-15T15:04:11;102304.84;;;12.42;76.48
54042;BME280;41156;51.508;5.406;2023-02-15T15:07:23;102303.56;;;12.38;71.97
54042;BME280;41156;51.508;5.406;2023-02-15T15:10:43;102313.09;;;12.34;74.63
54042;BME280;41156;51.508;5.406;2023-02-15T15:14:00;102323.88;;;12.27;73.32
54042;BME280;41156;51.508;5.406;2023-02-15T15:17:02;102310.91;;;12.23;77.50
54042;BME280;41156;51.508;5.406;2023-02-15T15:20:12;102308.94;;;12.16;76.31
54042;BME280;41156;51.508;5.406;2023-02-15T15:26:31;102303.63;;;12.08;77.37
54042;BME280;41156;51.508;5.406;2023-02-15T15:29:40;102294.78;;;11.99;78.56
54042;BME280;41156;51.508;5.406;2023-02-15T15:33:23;102301.13;;;11.92;75.75
54042;BME280;41156;51.508;5.406;2023-02-15T15:37:07;102299.72;;;11.81;75.28
54042;BME280;41156;51.508;5.406;2023-02-15T15:40:38;102301.66;;;11.72;75.67
54042;BME280;41156;51.508;5.406;2023-02-15T15:47:28;102302.88;;;11.55;78.34
54042;BME280;41156;51.508;5.406;2023-02-15T15:50:33;102292.13;;;11.46;80.10
54042;BME280;41156;51.508;5.406;2023-02-15T15:53:39;102296.44;;;11.41;79.90
54042;BME280;41156;51.508;5.406;2023-02-15T15:56:45;102291.47;;;11.29;79.01
54042;BME280;41156;51.508;5.406;2023-02-15T15:59:47;102286.97;;;11.22;80.88
54042;BME280;41156;51.508;5.406;2023-02-15T16:02:52;102287.91;;;11.14;81.11
54042;BME280;41156;51.508;5.406;2023-02-15T16:05:53;102280.69;;;11.06;81.25
54042;BME280;41156;51.508;5.406;2023-02-15T16:08:55;102288.69;;;11.00;81.82
54042;BME280;41156;51.508;5.406;2023-02-15T16:11:57;102281.47;;;10.92;81.37
54042;BME280;41156;51.508;5.406;2023-02-15T16:15:19;102289.81;;;10.82;82.26
54042;BME280;41156;51.508;5.406;2023-02-15T16:18:23;102283.66;;;10.73;81.48
54042;BME280;41156;51.508;5.406;2023-02-15T16:21:29;102286.41;;;10.65;81.91
54042;BME280;41156;51.508;5.406;2023-02-15T16:27:47;102291.75;;;10.50;83.10
54042;BME280;41156;51.508;5.406;2023-02-15T16:31:04;102292.84;;;10.41;83.18
54042;BME280;41156;51.508;5.406;2023-02-15T16:34:14;102288.63;;;10.30;83.47
54042;BME280;41156;51.508;5.406;2023-02-15T16:37:25;102286.31;;;10.19;84.16
54042;BME280;41156;51.508;5.406;2023-02-15T16:40:35;102287.41;;;10.10;84.97
54042;BME280;41156;51.508;5.406;2023-02-15T16:43:40;102299.41;;;9.99;84.97
54042;BME280;41156;51.508;5.406;2023-02-15T16:46:44;102296.75;;;9.91;84.67
54042;BME280;41156;51.508;5.406;2023-02-15T16:49:48;102297.97;;;9.80;86.05
54042;BME280;41156;51.508;5.406;2023-02-15T16:52:51;102305.44;;;9.70;86.13
54042;BME280;41156;51.508;5.406;2023-02-15T16:55:57;102303.94;;;9.59;86.87
54042;BME280;41156;51.508;5.406;2023-02-15T16:59:00;102303.28;;;9.49;87.53
54042;BME280;41156;51.508;5.406;2023-02-15T17:02:04;102307.88;;;9.40;87.19
54042;BME280;41156;51.508;5.406;2023-02-15T17:11:35;102289.34;;;9.12;88.72
54042;BME280;41156;51.508;5.406;2023-02-15T17:14:39;102288.69;;;9.02;89.29
54042;BME280;41156;51.508;5.406;2023-02-15T17:17:40;102299.47;;;8.94;88.73
54042;BME280;41156;51.508;5.406;2023-02-15T17:20:42;102296.44;;;8.80;90.10
54042;BME280;41156;51.508;5.406;2023-02-15T17:23:48;102306.38;;;8.72;90.66
54042;BME280;41156;51.508;5.406;2023-02-15T17:26:54;102308.72;;;8.58;91.68
54042;BME280;41156;51.508;5.406;2023-02-15T17:30:13;102303.47;;;8.48;93.37
54042;BME280;41156;51.508;5.406;2023-02-15T17:33:24;102303.75;;;8.37;92.94
54042;BME280;41156;51.508;5.406;2023-02-15T17:36:30;102300.88;;;8.30;91.94
54042;BME280;41156;51.508;5.406;2023-02-15T17:39:32;102296.31;;;8.23;92.39
54042;BME280;41156;51.508;5.406;2023-02-15T17:42:32;102285.69;;;8.13;93.17
54042;BME280;41156;51.508;5.406;2023-02-15T17:45:42;102293.56;;;8.06;93.70
54042;BME280;41156;51.508;5.406;2023-02-15T17:48:46;102289.81;;;7.99;93.81
54042;BME280;41156;51.508;5.406;2023-02-15T17:51:47;102284.06;;;7.94;93.58
54042;BME280;41156;51.508;5.406;2023-02-15T17:54:47;102294.47;;;7.89;93.88